Wind From: 11-12-2017 04:25 Until: 16:00 warning for: Wind Level: Orange info button

Power and phone distribution networks may be disrupted for relatively long periods., Roofs and chimneys can be damaged. , Tree branches may break. , Vehicles can be deported. , Traffic may be disrupted, particularly on secondary roads in forest areas. Limit your trips. , Limit your speed in highway driving, especially if you drive a vehicle or hitch sensitive to wind. , Do not go for walks in forests or along the coast., In town, be vigilant against possible falling objects., Do not work on roofs and do not touch any electrical line fallen on the ground., Store or secure sensitive objects to wind or likely to be damaged., Always install power generators outside buildings. 


Meteo18 Weather Cam more information Meteo18 Weather Cam


Thunder radar more information blitzortung!


Rain radar more information rain snow radar


Visit our other weather sites:

Template documentation
and downloads

And another site



Weather Underground History page Text

Daily Summary for February 4, 2016 Units:  Metric    English   Both
« Previous Day
Next Day »
Daily Weekly Monthly Yearly Custom
  High: Low: Average:
Temperature: 9.1 °C -0.1 °C 5 °C
Dew Point: 8.5 °C -0.8 °C 4.1 °C
Humidity: 98 % 84 % 94 %
Wind Speed: 11.3 km/h 0.0 km/h 2 km/h
Wind Gust: 20.9 km/h - -
Wind:- - SW
Pressure: 1033.7 hPa 1029.3 hPa -
Precipitation: 1.8 mm    
Historical Graphs
 
 
Tabular Data for February 4, 2016
Time Temperature Dew Point Pressure Wind Wind Speed Wind Gust Humidity Rainfall Rate (Hourly)
00:07 4.7 °C 2.6 °C 1032.4 hPa Calm   3.2 km/h 86 % 0.0 mm
00:12 4.7 °C 2.6 °C 1032.4 hPa SW 1.6 km/h 3.2 km/h 86 % 0.0 mm
00:17 4.8 °C 2.5 °C 1032.4 hPa Calm   3.2 km/h 85 % 0.0 mm
00:27 4.9 °C 2.6 °C 1032.4 hPa Calm   8.0 km/h 85 % 0.0 mm
00:34 4.9 °C 2.4 °C 1032.7 hPa South 3.2 km/h 8.0 km/h 84 % 0.0 mm
00:42 4.9 °C 2.4 °C 1032.7 hPa Calm   8.0 km/h 84 % 0.0 mm
00:47 4.9 °C 2.6 °C 1032.7 hPa Calm   8.0 km/h 85 % 0.0 mm
00:57 4.9 °C 2.4 °C 1032.7 hPa Calm   9.7 km/h 84 % 0.0 mm
01:02 4.9 °C 2.6 °C 1032.7 hPa Calm   9.7 km/h 85 % 0.0 mm
01:12 4.9 °C 2.6 °C 1032.7 hPa Calm   6.4 km/h 85 % 0.0 mm
01:22 4.9 °C 2.6 °C 1032.4 hPa Calm   8.0 km/h 85 % 0.0 mm
01:27 4.9 °C 2.6 °C 1032.4 hPa South 1.6 km/h 8.0 km/h 85 % 0.0 mm
01:37 4.9 °C 2.6 °C 1032.4 hPa Calm   4.8 km/h 85 % 0.0 mm
01:47 4.8 °C 2.5 °C 1032.4 hPa Calm   8.0 km/h 85 % 0.0 mm
01:57 4.7 °C 2.4 °C 1032.7 hPa WSW 1.6 km/h 9.7 km/h 85 % 0.0 mm
02:07 4.4 °C 2.1 °C 1033.1 hPa SSE 1.6 km/h 3.2 km/h 85 % 0.0 mm
02:17 4.0 °C 1.9 °C 1033.1 hPa Calm   3.2 km/h 86 % 0.0 mm
02:22 3.9 °C 1.9 °C 1033.1 hPa NE 1.6 km/h 3.2 km/h 87 % 0.0 mm
02:42 3.6 °C 1.6 °C 1033.4 hPa Calm   3.2 km/h 87 % 0.0 mm
02:47 3.6 °C 1.6 °C 1033.4 hPa Calm   3.2 km/h 87 % 0.0 mm
02:52 3.4 °C 1.4 °C 1033.4 hPa Calm   3.2 km/h 87 % 0.0 mm
02:57 3.2 °C 1.2 °C 1033.4 hPa Calm   3.2 km/h 87 % 0.0 mm
03:02 3.1 °C 1.5 °C 1033.4 hPa Calm   1.6 km/h 89 % 0.0 mm
03:07 3.2 °C 1.6 °C 1033.4 hPa Calm   1.6 km/h 89 % 0.0 mm
03:12 3.3 °C 1.7 °C 1033.4 hPa Calm   1.6 km/h 89 % 0.0 mm
03:22 3.3 °C 1.7 °C 1033.4 hPa Calm   1.6 km/h 89 % 0.0 mm
03:32 3.1 °C 1.5 °C 1033.4 hPa Calm   1.6 km/h 89 % 0.0 mm
03:52 2.6 °C 1.3 °C 1033.4 hPa Calm   1.6 km/h 91 % 0.0 mm
03:57 2.6 °C 1.3 °C 1033.4 hPa Calm   1.6 km/h 91 % 0.0 mm
04:02 2.4 °C 1.2 °C 1033.4 hPa Calm   1.6 km/h 92 % 0.0 mm
04:12 2.2 °C 1.0 °C 1033.1 hPa Calm   1.6 km/h 92 % 0.0 mm
04:17 2.0 °C 0.8 °C 1033.4 hPa Calm     92 % 0.0 mm
04:27 1.7 °C 0.5 °C 1033.4 hPa Calm     92 % 0.0 mm
04:32 1.6 °C 0.6 °C 1033.4 hPa Calm   1.6 km/h 93 % 0.0 mm
04:42 1.7 °C 0.8 °C 1033.1 hPa Calm   1.6 km/h 94 % 0.0 mm
04:52 1.5 °C 0.5 °C 1033.1 hPa Calm   1.6 km/h 93 % 0.0 mm
04:57 1.5 °C 0.6 °C 1033.1 hPa Calm   1.6 km/h 94 % 0.0 mm
05:02 1.4 °C 0.4 °C 1033.1 hPa Calm   1.6 km/h 93 % 0.0 mm
05:07 1.3 °C 0.3 °C 1033.1 hPa Calm   1.6 km/h 93 % 0.0 mm
05:17 0.9 °C -0.1 °C 1033.1 hPa Calm     93 % 0.0 mm
05:27 0.6 °C -0.3 °C 1033.1 hPa Calm     94 % 0.0 mm
05:37 0.5 °C -0.4 °C 1033.1 hPa Calm     94 % 0.0 mm
05:42 0.4 °C -0.3 °C 1033.4 hPa Calm     95 % 0.0 mm
05:52 0.3 °C -0.4 °C 1033.4 hPa Calm     95 % 0.0 mm
06:02 0.1 °C -0.6 °C 1033.4 hPa Calm     95 % 0.0 mm
06:12 -0.1 °C -0.8 °C 1033.4 hPa Calm     95 % 0.0 mm
06:19 0.0 °C -0.7 °C 1033.4 hPa Calm     95 % 0.0 mm
06:27 0.5 °C -0.1 °C 1033.1 hPa Calm     96 % 0.0 mm
06:32 1.1 °C 0.7 °C 1033.1 hPa Calm     97 % 0.0 mm
06:42 1.9 °C 1.5 °C 1033.1 hPa WSW 1.6 km/h 1.6 km/h 97 % 0.0 mm
06:47 2.0 °C 1.1 °C 1033.1 hPa Calm   1.6 km/h 94 % 0.0 mm
06:57 2.3 °C 1.3 °C 1033.4 hPa SW 1.6 km/h 3.2 km/h 93 % 0.0 mm
07:02 2.3 °C 1.3 °C 1033.4 hPa Calm   4.8 km/h 93 % 0.0 mm
07:09 2.3 °C 1.3 °C 1033.4 hPa Calm   4.8 km/h 93 % 0.0 mm
07:17 2.4 °C 1.4 °C 1033.7 hPa Calm   4.8 km/h 93 % 0.0 mm
07:27 2.4 °C 1.2 °C 1033.4 hPa WSW 3.2 km/h 8.0 km/h 92 % 0.0 mm
07:37 2.4 °C 1.2 °C 1033.1 hPa SW 1.6 km/h 8.0 km/h 92 % 0.0 mm
07:42 2.4 °C 1.2 °C 1033.1 hPa Calm   8.0 km/h 92 % 0.0 mm
07:52 2.2 °C 1.0 °C 1033.1 hPa West 1.6 km/h 4.8 km/h 92 % 0.0 mm
08:02 2.1 °C 1.1 °C 1033.4 hPa SW 1.6 km/h 4.8 km/h 93 % 0.0 mm
08:17 2.2 °C 1.3 °C 1033.4 hPa SW 1.6 km/h 9.7 km/h 94 % 0.0 mm
08:22 2.2 °C 1.3 °C 1033.4 hPa Calm   4.8 km/h 94 % 0.0 mm
08:32 2.2 °C 1.3 °C 1033.4 hPa SW 4.8 km/h 6.4 km/h 94 % 0.0 mm
08:37 2.2 °C 1.3 °C 1033.4 hPa SW 3.2 km/h 6.4 km/h 94 % 0.0 mm
08:42 2.2 °C 1.3 °C 1033.4 hPa SW 3.2 km/h 11.3 km/h 94 % 0.0 mm
08:52 2.2 °C 1.3 °C 1033.4 hPa WSW 4.8 km/h 9.7 km/h 94 % 0.0 mm
09:02 2.1 °C 1.2 °C 1033.4 hPa SW 3.2 km/h 9.7 km/h 94 % 0.0 mm
09:07 2.1 °C 1.1 °C 1033.1 hPa Calm   9.7 km/h 93 % 0.0 mm
09:17 2.1 °C 1.1 °C 1033.1 hPa WSW 6.4 km/h 12.9 km/h 93 % 0.0 mm
09:22 2.1 °C 1.1 °C 1033.1 hPa WSW 9.7 km/h 12.9 km/h 93 % 0.0 mm
09:32 2.1 °C 1.1 °C 1033.1 hPa WSW 1.6 km/h 14.5 km/h 93 % 0.0 mm
09:37 2.1 °C 1.1 °C 1033.1 hPa SW 6.4 km/h 12.9 km/h 93 % 0.0 mm
09:42 2.2 °C 1.2 °C 1033.1 hPa WSW 4.8 km/h 14.5 km/h 93 % 0.0 mm
09:47 2.2 °C 1.2 °C 1033.1 hPa SW 1.6 km/h 14.5 km/h 93 % 0.0 mm
09:52 2.3 °C 1.4 °C 1033.4 hPa SW 6.4 km/h 9.7 km/h 94 % 0.0 mm
09:57 2.4 °C 1.4 °C 1033.4 hPa Calm   9.7 km/h 93 % 0.0 mm
10:07 2.6 °C 1.6 °C 1033.4 hPa SW 3.2 km/h 8.0 km/h 93 % 0.0 mm
10:12 2.7 °C 1.5 °C 1033.1 hPa SW 3.2 km/h 8.0 km/h 92 % 0.0 mm
10:27 2.8 °C 1.6 °C 1033.1 hPa WSW 1.6 km/h 11.3 km/h 92 % 0.0 mm
10:37 3.0 °C 1.8 °C 1033.4 hPa West 4.8 km/h 9.7 km/h 92 % 0.0 mm
10:42 3.1 °C 1.9 °C 1033.1 hPa SW 3.2 km/h 9.7 km/h 92 % 0.0 mm
10:52 3.1 °C 2.1 °C 1033.4 hPa WSW 3.2 km/h 11.3 km/h 93 % 0.0 mm
10:57 3.2 °C 2.3 °C 1033.1 hPa SW 3.2 km/h 11.3 km/h 94 % 0.0 mm
11:02 3.2 °C 2.5 °C 1033.1 hPa SW 4.8 km/h 11.3 km/h 95 % 0.0 mm
11:07 3.3 °C 2.6 °C 1033.1 hPa WSW 3.2 km/h 11.3 km/h 95 % 0.0 mm
11:12 3.3 °C 2.6 °C 1033.1 hPa SW 4.8 km/h 11.3 km/h 95 % 0.3 mm
11:22 3.4 °C 2.7 °C 1033.1 hPa SW 8.0 km/h 11.3 km/h 95 % 0.3 mm
11:32 3.5 °C 2.9 °C 1033.1 hPa SW 3.2 km/h 12.9 km/h 96 % 0.3 mm
11:37 3.6 °C 3.0 °C 1033.1 hPa SW 4.8 km/h 12.9 km/h 96 % 0.3 mm
11:42 3.7 °C 3.1 °C 1032.7 hPa West 4.8 km/h 12.9 km/h 96 % 0.3 mm
11:52 3.9 °C 3.5 °C 1032.4 hPa SW 6.4 km/h 12.9 km/h 97 % 0.5 mm
12:07 4.3 °C 3.9 °C 1032.1 hPa SW 6.4 km/h 12.9 km/h 97 % 0.5 mm
12:13 4.3 °C 3.9 °C 1032.1 hPa WSW 4.8 km/h 14.5 km/h 97 % 0.5 mm
12:23 4.4 °C 4.0 °C 1031.7 hPa WSW 1.6 km/h 17.7 km/h 97 % 0.5 mm
12:32 4.5 °C 3.9 °C 1031.7 hPa WSW 8.0 km/h 14.5 km/h 96 % 0.5 mm
12:37 4.6 °C 4.2 °C 1031.4 hPa SW 11.3 km/h 12.9 km/h 97 % 0.5 mm
12:47 4.7 °C 4.3 °C 1031.4 hPa SW 3.2 km/h 16.1 km/h 97 % 0.5 mm
12:52 4.8 °C 4.2 °C 1031.4 hPa SW 6.4 km/h 16.1 km/h 96 % 0.5 mm
13:09 4.9 °C 4.5 °C 1031.0 hPa WSW 4.8 km/h 17.7 km/h 97 % 0.3 mm
13:17 5.1 °C 4.7 °C 1031.0 hPa SW 4.8 km/h 16.1 km/h 97 % 0.5 mm
13:27 5.2 °C 4.6 °C 1030.7 hPa SW 6.4 km/h 16.1 km/h 96 % 0.5 mm
13:37 5.3 °C 4.9 °C 1030.7 hPa SW 8.0 km/h 14.5 km/h 97 % 0.3 mm
13:42 5.4 °C 5.0 °C 1030.7 hPa SW 4.8 km/h 14.5 km/h 97 % 0.3 mm
13:49 5.6 °C 5.0 °C 1030.4 hPa WSW 9.7 km/h 14.5 km/h 96 % 0.3 mm
13:57 5.8 °C 5.2 °C 1030.4 hPa SW 9.7 km/h 16.1 km/h 96 % 0.3 mm
14:02 5.8 °C 5.2 °C 1030.4 hPa SW 1.6 km/h 16.1 km/h 96 % 0.3 mm
14:07 5.9 °C 5.3 °C 1030.4 hPa SSE 1.6 km/h 16.1 km/h 96 % 0.3 mm
14:17 6.1 °C 5.5 °C 1030.4 hPa WNW 3.2 km/h 16.1 km/h 96 % 0.0 mm
14:27 6.2 °C 5.6 °C 1030.0 hPa SW 3.2 km/h 17.7 km/h 96 % 0.0 mm
14:37 6.3 °C 5.7 °C 1030.0 hPa SSW 3.2 km/h 16.1 km/h 96 % 0.0 mm
14:42 6.3 °C 5.7 °C 1030.0 hPa SW 4.8 km/h 14.5 km/h 96 % 0.0 mm
14:52 6.2 °C 5.6 °C 1030.0 hPa SSW 3.2 km/h 14.5 km/h 96 % 0.3 mm
15:02 6.3 °C 5.7 °C 1030.0 hPa SSW 3.2 km/h 20.9 km/h 96 % 0.3 mm
15:07 6.3 °C 5.7 °C 1030.0 hPa Calm   20.9 km/h 96 % 0.3 mm
15:12 6.4 °C 5.8 °C 1029.7 hPa Calm   12.9 km/h 96 % 0.3 mm
15:22 6.6 °C 6.0 °C 1029.7 hPa SW 6.4 km/h 9.7 km/h 96 % 0.3 mm
15:27 6.7 °C 6.1 °C 1029.7 hPa SE 3.2 km/h 9.7 km/h 96 % 0.3 mm
15:37 6.8 °C 6.2 °C 1029.7 hPa SW 6.4 km/h 9.7 km/h 96 % 0.3 mm
15:42 6.8 °C 6.2 °C 1029.7 hPa SW 4.8 km/h 9.7 km/h 96 % 0.0 mm
15:59 6.9 °C 6.5 °C 1029.7 hPa SW 3.2 km/h 11.3 km/h 97 % 0.0 mm
16:08 7.0 °C 6.6 °C 1029.7 hPa WSW 6.4 km/h 11.3 km/h 97 % 0.0 mm
16:17 7.1 °C 6.7 °C 1029.7 hPa SW 3.2 km/h 11.3 km/h 97 % 0.0 mm
16:27 7.1 °C 6.7 °C 1029.7 hPa SW 3.2 km/h 11.3 km/h 97 % 0.3 mm
16:37 7.2 °C 6.8 °C 1029.3 hPa SW 3.2 km/h 12.9 km/h 97 % 0.3 mm
16:42 7.2 °C 6.8 °C 1029.7 hPa ESE 4.8 km/h 12.9 km/h 97 % 0.3 mm
16:47 7.2 °C 6.8 °C 1029.7 hPa SW 1.6 km/h 11.3 km/h 97 % 0.3 mm
16:57 7.3 °C 6.9 °C 1029.7 hPa WSW 4.8 km/h 9.7 km/h 97 % 0.3 mm
17:02 7.3 °C 6.9 °C 1029.7 hPa SSW 1.6 km/h 11.3 km/h 97 % 0.3 mm
17:07 7.4 °C 7.0 °C 1029.7 hPa SW 6.4 km/h 11.3 km/h 97 % 0.3 mm
17:17 7.4 °C 7.0 °C 1029.7 hPa SW 3.2 km/h 9.7 km/h 97 % 0.3 mm
17:27 7.4 °C 7.0 °C 1029.7 hPa SW 1.6 km/h 9.7 km/h 97 % 0.0 mm
17:37 7.4 °C 7.0 °C 1029.7 hPa SW 8.0 km/h 8.0 km/h 97 % 0.0 mm
17:42 7.4 °C 7.0 °C 1029.7 hPa West 4.8 km/h 9.7 km/h 97 % 0.0 mm
17:52 7.5 °C 7.1 °C 1029.7 hPa WSW 3.2 km/h 9.7 km/h 97 % 0.0 mm
17:57 7.5 °C 7.1 °C 1029.7 hPa SSW 1.6 km/h 8.0 km/h 97 % 0.0 mm
18:04 7.5 °C 7.1 °C 1029.7 hPa West 1.6 km/h 8.0 km/h 97 % 0.0 mm
18:12 7.5 °C 7.1 °C 1029.7 hPa SW 1.6 km/h 9.7 km/h 97 % 0.0 mm
18:17 7.6 °C 7.2 °C 1029.7 hPa Calm   9.7 km/h 97 % 0.0 mm
18:22 7.5 °C 7.1 °C 1029.7 hPa WSW 1.6 km/h 9.7 km/h 97 % 0.0 mm
18:32 7.6 °C 7.2 °C 1030.0 hPa Calm   6.4 km/h 97 % 0.0 mm
18:37 7.6 °C 7.2 °C 1030.0 hPa Calm   6.4 km/h 97 % 0.0 mm
18:42 7.6 °C 7.2 °C 1029.7 hPa WSW 3.2 km/h 6.4 km/h 97 % 0.0 mm
18:47 7.6 °C 7.2 °C 1029.7 hPa Calm   4.8 km/h 97 % 0.0 mm
18:52 7.6 °C 7.2 °C 1029.7 hPa SSW 3.2 km/h 4.8 km/h 97 % 0.0 mm
19:02 7.7 °C 7.3 °C 1030.0 hPa Calm   6.4 km/h 97 % 0.0 mm
19:07 7.7 °C 7.3 °C 1030.0 hPa Calm   4.8 km/h 97 % 0.0 mm
19:12 7.8 °C 7.4 °C 1030.0 hPa Calm   6.4 km/h 97 % 0.0 mm
19:17 7.8 °C 7.4 °C 1030.0 hPa Calm   6.4 km/h 97 % 0.0 mm
19:22 7.8 °C 7.4 °C 1030.0 hPa South 1.6 km/h 6.4 km/h 97 % 0.0 mm
19:27 7.8 °C 7.4 °C 1030.0 hPa Calm   4.8 km/h 97 % 0.0 mm
19:39 7.9 °C 7.5 °C 1030.0 hPa SSW 1.6 km/h 4.8 km/h 97 % 0.0 mm
19:47 7.9 °C 7.5 °C 1030.0 hPa Calm   8.0 km/h 97 % 0.0 mm
19:57 8.0 °C 7.6 °C 1030.4 hPa SSW 1.6 km/h 4.8 km/h 97 % 0.0 mm
20:02 8.1 °C 7.7 °C 1030.0 hPa Calm   4.8 km/h 97 % 0.0 mm
20:17 8.2 °C 7.8 °C 1030.4 hPa SSW 3.2 km/h 4.8 km/h 97 % 0.3 mm
20:27 8.3 °C 7.9 °C 1030.4 hPa Calm   6.4 km/h 97 % 0.3 mm
20:32 8.3 °C 7.9 °C 1030.4 hPa SSW 1.6 km/h 6.4 km/h 97 % 0.3 mm
20:42 8.4 °C 8.0 °C 1030.4 hPa Calm   4.8 km/h 97 % 0.3 mm
20:47 8.4 °C 8.1 °C 1030.4 hPa SW 1.6 km/h 4.8 km/h 98 % 0.3 mm
20:57 8.5 °C 8.1 °C 1030.4 hPa Calm   4.8 km/h 97 % 0.3 mm
21:02 8.5 °C 8.1 °C 1030.4 hPa Calm   4.8 km/h 97 % 0.3 mm
21:07 8.6 °C 8.2 °C 1030.4 hPa Calm   4.8 km/h 97 % 0.0 mm
21:17 8.6 °C 8.2 °C 1030.4 hPa Calm   3.2 km/h 97 % 0.0 mm
21:27 8.6 °C 8.2 °C 1030.4 hPa SW 1.6 km/h 3.2 km/h 97 % 0.0 mm
21:37 8.6 °C 8.2 °C 1030.4 hPa Calm   3.2 km/h 97 % 0.0 mm
21:42 8.6 °C 8.2 °C 1030.4 hPa Calm   1.6 km/h 97 % 0.0 mm
21:52 8.6 °C 8.2 °C 1030.4 hPa Calm   1.6 km/h 97 % 0.0 mm
21:57 8.6 °C 8.2 °C 1030.4 hPa Calm     97 % 0.0 mm
22:02 8.6 °C 8.2 °C 1030.4 hPa Calm     97 % 0.0 mm
22:12 8.7 °C 8.4 °C 1030.4 hPa Calm   1.6 km/h 98 % 0.0 mm
22:17 8.7 °C 8.4 °C 1030.4 hPa Calm   1.6 km/h 98 % 0.0 mm
22:22 8.7 °C 8.4 °C 1030.4 hPa Calm   1.6 km/h 98 % 0.0 mm
22:27 8.7 °C 8.3 °C 1030.4 hPa Calm   1.6 km/h 97 % 0.0 mm
22:32 8.7 °C 8.4 °C 1030.4 hPa Calm   1.6 km/h 98 % 0.0 mm
22:42 8.8 °C 8.5 °C 1030.7 hPa Calm   1.6 km/h 98 % 0.0 mm
22:52 8.8 °C 8.3 °C 1030.7 hPa SSE 1.6 km/h 4.8 km/h 97 % 0.0 mm
23:02 8.9 °C 8.4 °C 1030.7 hPa WSW 1.6 km/h 3.2 km/h 97 % 0.3 mm
23:12 8.9 °C 8.4 °C 1030.7 hPa Calm   1.6 km/h 97 % 0.3 mm
23:22 8.9 °C 8.4 °C 1030.7 hPa South 1.6 km/h 4.8 km/h 97 % 0.3 mm
23:44 9.1 °C 8.5 °C 1030.7 hPa Calm   8.0 km/h 96 % 0.3 mm
23:52 9.1 °C 8.5 °C 1030.7 hPa SSW 1.6 km/h 3.2 km/h 96 % 0.3 mm
Meteo18
Compliments of Weather Underground - 4 mb

Script developed by  Jim McMurry - jmcmurry@mwt.net Adapted for the template by  Wim van der Kuil - Leuven-Template.eu

You find our weather info also at:

European Weather Network

Weather Underground

Equipment we use:

Weather-station
Davis Vue

Weather-program
Meteohub

Weather-server
Raspberry PI 2 B+

Provider
1 and 1

Davis Vue

Meteohub

Raspberry PI 2 B+

1 and 1